Aeroporto :







RITROVATECI SU...

 
LOGIN :

Iscrizione | Disclaimer

   EN    FR    IT 

 









Sommario :    VFR   VFR Marginale   IFR   IFR Intensivo   IFR Molto Intensivo
Visibilità : 
Base nubi : 
>= 8 km
>= 3000ft
5 / 8 km
1000 / 3000 ft
1500m / 5 km
500 / 1000 ft
800 / 1500m
200 / 500 ft
< 800m
< 200 ft
Simboli :   Temporali  Nebbia  Neve Forte  Precipitazioni Forti  Vento > 20 kt






- Altitudine del aeroporto : 266 ft
- Codice IATA : MHT


KMHT - Manchester

ULTIMO METAR :
  • 152053Z 27014G24KT 10SM BKN055 06/M06 A2965 RMK AO2 PK WND 25027/2014 SLP057 T00561061 51036

METARs OBSOLETI :
  • 151953Z 28011G21KT 10SM BKN055 07/M05 A2962 RMK AO2 PK WND 27030/1919 SLP045 T00671050
  • 151853Z 25018G26KT 10SM BKN049 07/M04 A2958 RMK AO2 PK WND 29034/1811 SLP033 T00671044

TAF KMHT
Valido dal 15 a 18 ore il 16 a 18 ore UTC


151720Z 1518/1618 28014G24KT P6SM BKN060
TEMPO 1518/1521 SCT060
FM152100 27017G26KT P6SM FEW250
FM160400 28012G21KT P6SM SKC
FM160800 28009KT P6SM SKC



MetMap, La meteo Aeronautica in un colpo d'occhio ! - Copyright ORBIFLY Dicembre 2007 - Disclaimer

ORBIFLY MET'MAP TEAM :

Programmazione e sviluppo : Alexandra Zaïnal
Concezione : Baudouin d'Aumeries
Aiuto per la programmazione : Marc-Olivier Méhu
Supporto tecnico e logistico : Manuel Goepfert
Aiuto per la traduzione : Arnaldo La Scala

Contatto : metmap@orbifly.com




FONTI E CREDITI :

   NOAA